Time;durP1;ratioP1;P1;durP2;ratioP2;P2;SDS_P1;SDS_P2;PMS_P1;PMS_P2;Temp;Humidity;BMP_temperature;BMP_pressure;BME280_temperature;BME280_humidity;BME280_pressure;Samples;Min_cycle;Max_cycle;Signal;HPM_P1;HPM_P2
2024/01/29 00:02:18;;;;;;;;;;;15.50;60.00;;;;;;6275079;22;19908;-75
2024/01/29 00:04:44;;;;;;;;;;;15.40;60.50;;;;;;6277084;22;19911;-75
2024/01/29 00:07:09;;;;;;;;;;;15.40;60.10;;;;;;6277337;22;19915;-75
2024/01/29 00:09:35;;;;;;;;;;;15.50;60.50;;;;;;6277229;22;19941;-75
2024/01/29 00:12:01;;;;;;;;;;;15.40;60.30;;;;;;6277183;22;19903;-75
2024/01/29 00:14:27;;;;;;;;;;;15.60;60.20;;;;;;6277782;22;19903;-75
2024/01/29 00:16:52;;;;;;;;;;;15.50;60.20;;;;;;6277124;22;19934;-75
2024/01/29 00:19:18;;;;;;;;;;;15.60;60.30;;;;;;6277603;22;19904;-75
2024/01/29 00:21:43;;;;;;;;;;;15.50;60.60;;;;;;6277134;22;19953;-75
2024/01/29 00:24:09;;;;;;;;;;;15.50;60.60;;;;;;6276940;22;19942;-75
2024/01/29 00:26:37;;;;;;;;;;;15.50;60.50;;;;;;6277781;22;19904;-75
2024/01/29 00:29:02;;;;;;;;;;;15.60;60.70;;;;;;6276965;22;19934;-75
2024/01/29 00:31:28;;;;;;;;;;;15.50;60.60;;;;;;6277127;22;19955;-75
2024/01/29 00:33:53;;;;;;;;;;;15.60;60.40;;;;;;6277047;22;19945;-75
2024/01/29 00:36:18;;;;;;;;;;;15.60;60.60;;;;;;6276860;22;19903;-75
2024/01/29 00:38:44;;;;;;;;;;;15.60;60.70;;;;;;6277014;22;19903;-75
2024/01/29 00:41:09;;;;;;;;;;;15.60;60.40;;;;;;6276964;22;19949;-75
2024/01/29 00:43:35;;;;;;;;;;;15.70;60.20;;;;;;6276911;22;20346;-75
2024/01/29 00:46:00;;;;;;;;;;;15.60;60.80;;;;;;6276845;22;20311;-75
2024/01/29 00:48:26;;;;;;;;;;;15.70;60.00;;;;;;6277437;22;19911;-75
2024/01/29 00:50:52;;;;;;;;;;;15.60;60.60;;;;;;6276921;22;19907;-75
2024/01/29 00:53:17;;;;;;;;;;;15.60;60.40;;;;;;6276778;22;19949;-75
2024/01/29 00:55:45;;;;;;;;;;;15.60;60.70;;;;;;6276863;22;19904;-75
2024/01/29 00:58:11;;;;;;;;;;;15.60;60.70;;;;;;6277323;22;20219;-75
2024/01/29 01:00:38;;;;;;;;;;;15.60;60.70;;;;;;6276893;22;19911;-75
2024/01/29 01:03:05;;;;;;;;;;;15.60;59.90;;;;;;6276703;22;20388;-74
2024/01/29 01:05:31;;;;;;;;;;;15.60;60.70;;;;;;6276898;22;19972;-75
2024/01/29 01:07:57;;;;;;;;;;;15.60;60.70;;;;;;6287392;22;19937;-74
2024/01/29 01:10:23;;;;;;;;;;;15.60;60.70;;;;;;6276502;22;20332;-75
2024/01/29 01:12:49;;;;;;;;;;;15.70;60.60;;;;;;6277351;22;19986;-75
2024/01/29 01:15:15;;;;;;;;;;;15.60;60.60;;;;;;6277285;22;19947;-75
2024/01/29 01:17:40;;;;;;;;;;;15.40;60.10;;;;;;6276700;22;20413;-75
2024/01/29 01:20:06;;;;;;;;;;;15.60;60.60;;;;;;6276565;22;20242;-75
2024/01/29 01:22:32;;;;;;;;;;;15.70;58.80;;;;;;6276340;22;19915;-75
2024/01/29 01:24:57;;;;;;;;;;;15.60;60.70;;;;;;6277110;22;20322;-75
2024/01/29 01:27:23;;;;;;;;;;;15.60;60.60;;;;;;6276565;22;19911;-75
2024/01/29 01:29:48;;;;;;;;;;;15.40;60.70;;;;;;6276551;22;19903;-75
2024/01/29 01:32:14;;;;;;;;;;;15.60;60.90;;;;;;6276521;22;19993;-75
2024/01/29 01:34:39;;;;;;;;;;;15.60;60.60;;;;;;6277063;22;19911;-75
2024/01/29 01:37:05;;;;;;;;;;;15.60;60.80;;;;;;6276524;22;20342;-75
2024/01/29 01:39:30;;;;;;;;;;;15.60;60.70;;;;;;6276982;22;19903;-75
2024/01/29 01:41:56;;;;;;;;;;;15.60;60.60;;;;;;6277050;22;19903;-75
2024/01/29 01:44:22;;;;;;;;;;;15.70;60.40;;;;;;6277344;22;20238;-75
2024/01/29 01:46:48;;;;;;;;;;;15.60;60.80;;;;;;6276906;22;20233;-75
2024/01/29 01:49:14;;;;;;;;;;;15.70;60.60;;;;;;6276893;22;19982;-75
2024/01/29 01:51:40;;;;;;;;;;;15.60;60.70;;;;;;6276215;22;19903;-75
2024/01/29 01:54:06;;;;;;;;;;;15.80;61.10;;;;;;6276787;22;19907;-75
2024/01/29 01:56:32;;;;;;;;;;;15.70;61.00;;;;;;6276259;22;19907;-76
2024/01/29 01:58:59;;;;;;;;;;;15.60;61.10;;;;;;6276914;22;20266;-75
2024/01/29 02:01:25;;;;;;;;;;;15.60;60.90;;;;;;6276063;22;19904;-75
2024/01/29 02:03:51;;;;;;;;;;;15.60;61.20;;;;;;6276050;22;19908;-75
2024/01/29 02:06:16;;;;;;;;;;;15.60;61.10;;;;;;6275914;22;19916;-74
2024/01/29 02:08:42;;;;;;;;;;;15.60;61.10;;;;;;6275974;22;19913;-74
2024/01/29 02:11:07;;;;;;;;;;;15.60;61.40;;;;;;6276127;22;19903;-75
2024/01/29 02:13:33;;;;;;;;;;;15.60;60.80;;;;;;6276493;22;19903;-74
2024/01/29 02:16:00;;;;;;;;;;;15.60;61.10;;;;;;6276064;22;19926;-75
2024/01/29 02:18:25;;;;;;;;;;;15.60;61.30;;;;;;6276014;22;20382;-75
2024/01/29 02:20:51;;;;;;;;;;;15.60;61.20;;;;;;6275971;22;19903;-74
2024/01/29 02:23:16;;;;;;;;;;;15.60;61.20;;;;;;6276121;22;19964;-70
2024/01/29 02:25:42;;;;;;;;;;;15.60;61.50;;;;;;6275793;22;19912;-70
2024/01/29 02:28:07;;;;;;;;;;;15.60;61.50;;;;;;6276507;22;20324;-70
2024/01/29 02:30:33;;;;;;;;;;;15.60;61.10;;;;;;6275845;22;20314;-70
2024/01/29 02:32:58;;;;;;;;;;;15.60;61.30;;;;;;6275873;22;19995;-70
2024/01/29 02:35:24;;;;;;;;;;;15.60;61.30;;;;;;6276452;22;20214;-70
2024/01/29 02:37:49;;;;;;;;;;;15.60;61.20;;;;;;6275784;22;19903;-70
2024/01/29 02:40:15;;;;;;;;;;;15.40;61.10;;;;;;6275796;22;19986;-70
2024/01/29 02:42:40;;;;;;;;;;;15.60;60.80;;;;;;6276256;22;19927;-70
2024/01/29 02:45:06;;;;;;;;;;;15.60;61.20;;;;;;6275531;22;19916;-70
2024/01/29 02:47:32;;;;;;;;;;;15.60;59.80;;;;;;6275598;22;19907;-70
2024/01/29 02:49:57;;;;;;;;;;;15.60;61.20;;;;;;6275585;22;19904;-70
2024/01/29 02:52:22;;;;;;;;;;;15.60;61.20;;;;;;6275845;22;19903;-70
2024/01/29 02:54:48;;;;;;;;;;;15.60;61.00;;;;;;6275586;22;19903;-70
2024/01/29 02:57:13;;;;;;;;;;;15.80;61.20;;;;;;6275696;22;19910;-70
2024/01/29 02:59:39;;;;;;;;;;;15.60;61.10;;;;;;6275613;22;20022;-70
2024/01/29 03:02:06;;;;;;;;;;;15.70;60.30;;;;;;6275644;22;19915;-70
2024/01/29 03:04:32;;;;;;;;;;;15.60;61.40;;;;;;6275449;22;19916;-70
2024/01/29 03:06:57;;;;;;;;;;;15.60;61.10;;;;;;6275346;22;20251;-70
2024/01/29 03:09:22;;;;;;;;;;;15.60;60.80;;;;;;6276076;22;19903;-70
2024/01/29 03:11:48;;;;;;;;;;;15.50;61.40;;;;;;6275426;22;19927;-70
2024/01/29 03:14:13;;;;;;;;;;;15.60;61.20;;;;;;6275439;22;19903;-70
2024/01/29 03:16:39;;;;;;;;;;;15.60;61.10;;;;;;6275475;22;19931;-70
2024/01/29 03:19:04;;;;;;;;;;;15.60;61.30;;;;;;6275389;22;19903;-70
2024/01/29 03:21:30;;;;;;;;;;;15.10;61.00;;;;;;6275507;22;19949;-71
2024/01/29 03:23:56;;;;;;;;;;;15.60;61.30;;;;;;6275197;22;19907;-70
2024/01/29 03:26:21;;;;;;;;;;;15.60;61.00;;;;;;6275458;22;19903;-70
2024/01/29 03:28:47;;;;;;;;;;;15.70;61.20;;;;;;6275223;22;19910;-70
2024/01/29 03:31:12;;;;;;;;;;;15.80;61.50;;;;;;6275269;22;19911;-70
2024/01/29 03:33:38;;;;;;;;;;;15.60;61.50;;;;;;6275379;22;19908;-70
2024/01/29 03:36:04;;;;;;;;;;;15.50;61.20;;;;;;6275315;22;19918;-70
2024/01/29 03:38:30;;;;;;;;;;;15.60;60.80;;;;;;6276255;22;19925;-70
2024/01/29 03:40:55;;;;;;;;;;;15.50;61.20;;;;;;6248226;22;20346;-69
2024/01/29 03:43:20;;;;;;;;;;;15.60;60.80;;;;;;6275355;22;19907;-70
2024/01/29 03:45:46;;;;;;;;;;;15.50;61.30;;;;;;6275285;22;20243;-70
2024/01/29 03:48:12;;;;;;;;;;;15.50;61.10;;;;;;6275327;22;19912;-70
2024/01/29 03:50:37;;;;;;;;;;;15.60;61.20;;;;;;6275400;22;19903;-70
2024/01/29 03:53:03;;;;;;;;;;;15.90;61.30;;;;;;6275246;22;19933;-70
2024/01/29 03:55:29;;;;;;;;;;;15.50;60.70;;;;;;6275231;22;19904;-70
2024/01/29 03:57:54;;;;;;;;;;;15.20;61.30;;;;;;6275527;22;20309;-70
2024/01/29 04:00:20;;;;;;;;;;;15.50;61.20;;;;;;6275178;22;19907;-70
2024/01/29 04:02:49;;;;;;;;;;;15.60;60.90;;;;;;6275754;22;19908;-70
2024/01/29 04:05:18;;;;;;;;;;;15.60;56.90;;;;;;6275118;22;19923;-69
2024/01/29 04:07:46;;;;;;;;;;;15.50;61.20;;;;;;6275679;22;20362;-70
2024/01/29 04:10:12;;;;;;;;;;;15.50;61.00;;;;;;6275139;22;19957;-70
2024/01/29 04:12:37;;;;;;;;;;;15.60;61.20;;;;;;6275204;22;19903;-70
2024/01/29 04:15:03;;;;;;;;;;;15.50;61.10;;;;;;6275065;22;19907;-70
2024/01/29 04:17:29;;;;;;;;;;;15.50;60.40;;;;;;6275220;22;19903;-70
2024/01/29 04:19:54;;;;;;;;;;;15.50;61.20;;;;;;6275265;22;19961;-70
2024/01/29 04:22:20;;;;;;;;;;;15.50;61.10;;;;;;6275106;22;19912;-70
2024/01/29 04:24:45;;;;;;;;;;;15.50;61.00;;;;;;6275027;22;19998;-70
2024/01/29 04:27:11;;;;;;;;;;;15.60;61.10;;;;;;6275094;22;20165;-70
2024/01/29 04:29:36;;;;;;;;;;;15.50;61.00;;;;;;6274997;22;20393;-70
2024/01/29 04:32:02;;;;;;;;;;;15.50;61.00;;;;;;6274990;22;19982;-70
2024/01/29 04:34:27;;;;;;;;;;;15.50;60.40;;;;;;6275630;22;19904;-70
2024/01/29 04:36:53;;;;;;;;;;;15.40;61.20;;;;;;6275036;22;20328;-70
2024/01/29 04:39:18;;;;;;;;;;;15.40;60.90;;;;;;6248087;22;20468;-70
2024/01/29 04:41:44;;;;;;;;;;;15.50;61.10;;;;;;6275105;22;19903;-70
2024/01/29 04:44:09;;;;;;;;;;;15.40;61.10;;;;;;6275469;22;19998;-70
2024/01/29 04:46:35;;;;;;;;;;;15.40;61.10;;;;;;6275786;22;19938;-70
2024/01/29 04:49:01;;;;;;;;;;;15.60;61.20;;;;;;6275759;22;19925;-70
2024/01/29 04:51:27;;;;;;;;;;;15.40;60.80;;;;;;6275912;22;19904;-70
2024/01/29 04:53:52;;;;;;;;;;;15.50;61.00;;;;;;6277416;22;20299;-70
2024/01/29 04:56:18;;;;;;;;;;;15.40;61.00;;;;;;6276919;22;20006;-70
2024/01/29 04:58:43;;;;;;;;;;;15.40;60.60;;;;;;6276838;22;19904;-70
2024/01/29 05:06:50;;;;;;;;;;;15.50;56.60;;;;;;6256345;23;19965;-75
2024/01/29 05:09:17;;;;;;;;;;;15.50;56.80;;;;;;6244470;23;20403;-76
2024/01/29 05:11:42;;;;;;;;;;;15.40;60.80;;;;;;6245958;23;19903;-76
2024/01/29 05:14:08;;;;;;;;;;;15.40;60.80;;;;;;6246028;23;19915;-76
2024/01/29 05:16:35;;;;;;;;;;;15.40;61.00;;;;;;6246025;23;19904;-76
2024/01/29 05:19:00;;;;;;;;;;;15.30;60.90;;;;;;6245894;23;19912;-75
2024/01/29 05:21:27;;;;;;;;;;;15.30;60.90;;;;;;6245892;23;19956;-76
2024/01/29 05:23:52;;;;;;;;;;;15.40;61.00;;;;;;6245750;23;19903;-76
2024/01/29 05:26:18;;;;;;;;;;;15.50;61.20;;;;;;6245783;23;20348;-76
2024/01/29 05:28:43;;;;;;;;;;;15.40;60.90;;;;;;6245687;23;19904;-76
2024/01/29 05:31:09;;;;;;;;;;;15.40;60.80;;;;;;6246360;23;20238;-75
2024/01/29 05:33:34;;;;;;;;;;;15.30;60.90;;;;;;6245864;23;20297;-75
2024/01/29 05:35:59;;;;;;;;;;;15.30;60.90;;;;;;6246196;23;19904;-69
2024/01/29 05:38:25;;;;;;;;;;;15.40;60.40;;;;;;6246401;23;19911;-69
2024/01/29 05:40:50;;;;;;;;;;;15.50;60.80;;;;;;6244167;23;19908;-69
2024/01/29 05:43:16;;;;;;;;;;;15.40;61.00;;;;;;6245760;23;19986;-69
2024/01/29 05:45:41;;;;;;;;;;;15.40;60.70;;;;;;6245524;23;19911;-69
2024/01/29 05:48:08;;;;;;;;;;;14.90;60.60;;;;;;6245696;23;19903;-69
2024/01/29 05:50:33;;;;;;;;;;;15.30;61.20;;;;;;6246271;23;19930;-69
2024/01/29 05:52:59;;;;;;;;;;;15.40;61.00;;;;;;6245606;23;19981;-69
2024/01/29 05:55:24;;;;;;;;;;;15.30;60.70;;;;;;6245546;23;19987;-69
2024/01/29 05:57:50;;;;;;;;;;;15.40;61.00;;;;;;6245572;23;19994;-69
2024/01/29 06:00:16;;;;;;;;;;;15.40;60.90;;;;;;6246142;23;19912;-69
2024/01/29 06:02:46;;;;;;;;;;;15.30;60.60;;;;;;6245203;22;20222;-69
2024/01/29 06:05:11;;;;;;;;;;;15.30;60.90;;;;;;6245391;23;20002;-68
2024/01/29 06:07:38;;;;;;;;;;;15.30;61.00;;;;;;6245576;23;19931;-69
2024/01/29 06:10:03;;;;;;;;;;;15.80;61.20;;;;;;6245352;23;19910;-70
2024/01/29 06:12:29;;;;;;;;;;;15.30;59.70;;;;;;6245426;23;19978;-68
2024/01/29 06:14:54;;;;;;;;;;;15.30;61.10;;;;;;6252631;23;19934;-69
2024/01/29 06:17:20;;;;;;;;;;;15.60;61.10;;;;;;6245443;23;19959;-69
2024/01/29 06:19:45;;;;;;;;;;;16.40;61.40;;;;;;6248013;23;19904;-68
2024/01/29 06:22:11;;;;;;;;;;;15.40;60.70;;;;;;6251475;23;19907;-75
2024/01/29 06:24:36;;;;;;;;;;;15.30;60.80;;;;;;6245504;23;20377;-77
2024/01/29 06:27:02;;;;;;;;;;;15.30;61.00;;;;;;6245398;23;19904;-78
2024/01/29 06:29:27;;;;;;;;;;;15.30;60.50;;;;;;6245999;23;20291;-84
2024/01/29 06:31:53;;;;;;;;;;;15.30;61.00;;;;;;6245418;23;19989;-82
2024/01/29 06:34:18;;;;;;;;;;;15.20;60.80;;;;;;6245448;23;19904;-84
2024/01/29 06:36:44;;;;;;;;;;;15.30;60.80;;;;;;6246030;22;19926;-83
2024/01/29 06:39:09;;;;;;;;;;;15.20;60.60;;;;;;6245828;23;19994;-77
2024/01/29 06:41:35;;;;;;;;;;;15.30;61.10;;;;;;6245129;23;19903;-74
2024/01/29 06:44:00;;;;;;;;;;;17.20;62.30;;;;;;6245607;23;19908;-78
2024/01/29 06:46:26;;;;;;;;;;;15.20;61.20;;;;;;6245070;23;19911;-75
2024/01/29 06:48:51;;;;;;;;;;;15.20;60.90;;;;;;6244906;23;19962;-76
2024/01/29 06:51:17;;;;;;;;;;;15.20;61.40;;;;;;6244291;23;19904;-76
2024/01/29 06:53:43;;;;;;;;;;;15.20;61.20;;;;;;6245140;22;19961;-76
2024/01/29 06:56:08;;;;;;;;;;;15.20;61.10;;;;;;6244849;23;19923;-77
2024/01/29 06:58:36;;;;;;;;;;;15.20;61.20;;;;;;6244803;23;20314;-76
2024/01/29 07:01:05;;;;;;;;;;;15.20;60.30;;;;;;6244758;23;19915;-77
2024/01/29 07:03:31;;;;;;;;;;;15.20;60.70;;;;;;6244831;22;19919;-77
2024/01/29 07:05:57;;;;;;;;;;;15.20;61.20;;;;;;6244971;23;20323;-77
2024/01/29 07:08:24;;;;;;;;;;;15.20;61.30;;;;;;6245431;23;19904;-77
2024/01/29 07:10:50;;;;;;;;;;;15.20;61.20;;;;;;6245563;23;19936;-77
2024/01/29 07:13:16;;;;;;;;;;;15.10;61.50;;;;;;6245053;23;20220;-77
2024/01/29 07:15:42;;;;;;;;;;;15.20;61.20;;;;;;6245178;23;20311;-77
2024/01/29 07:18:09;;;;;;;;;;;15.00;60.90;;;;;;6245241;23;19910;-77
2024/01/29 07:20:39;;;;;;;;;;;15.20;60.90;;;;;;6245027;23;20346;-77
2024/01/29 07:23:05;;;;;;;;;;;15.10;60.30;;;;;;6245095;23;19950;-77
2024/01/29 07:25:31;;;;;;;;;;;15.20;61.50;;;;;;6245326;22;20241;-77
2024/01/29 07:28:03;;;;;;;;;;;15.30;60.90;;;;;;6245089;23;20353;-77
2024/01/29 07:30:29;;;;;;;;;;;15.20;61.10;;;;;;6254848;23;19903;-77
2024/01/29 07:32:58;;;;;;;;;;;15.10;61.00;;;;;;6244745;23;19931;-78
2024/01/29 07:35:24;;;;;;;;;;;15.10;61.30;;;;;;6242932;23;19930;-78
2024/01/29 07:37:51;;;;;;;;;;;15.20;60.70;;;;;;6245683;23;19942;-78
2024/01/29 07:40:17;;;;;;;;;;;15.10;61.10;;;;;;6244677;23;20246;-78
2024/01/29 07:42:42;;;;;;;;;;;15.10;61.20;;;;;;6244951;23;19910;-77
2024/01/29 07:45:08;;;;;;;;;;;15.20;61.00;;;;;;6244563;23;19911;-78
2024/01/29 07:47:33;;;;;;;;;;;15.10;61.40;;;;;;6244471;23;20250;-78
2024/01/29 07:49:59;;;;;;;;;;;15.10;61.20;;;;;;6244507;23;19903;-71
2024/01/29 07:52:25;;;;;;;;;;;15.10;61.20;;;;;;6244374;23;19903;-71
2024/01/29 07:54:50;;;;;;;;;;;15.10;61.50;;;;;;6244366;23;19908;-71
2024/01/29 07:57:16;;;;;;;;;;;15.10;61.20;;;;;;6244306;23;19957;-70
2024/01/29 07:59:41;;;;;;;;;;;15.10;61.00;;;;;;6244457;23;19904;-70
2024/01/29 08:02:07;;;;;;;;;;;15.10;60.30;;;;;;6243830;22;19911;-71
2024/01/29 08:04:32;;;;;;;;;;;15.30;61.30;;;;;;6244193;23;19958;-70
2024/01/29 08:06:58;;;;;;;;;;;14.90;60.90;;;;;;6244531;23;19987;-70
2024/01/29 08:09:26;;;;;;;;;;;15.00;60.80;;;;;;6244140;23;19926;-70
2024/01/29 08:11:52;;;;;;;;;;;15.20;61.50;;;;;;6243413;23;20303;-69
2024/01/29 08:14:17;;;;;;;;;;;15.20;61.30;;;;;;6244139;23;20006;-69
2024/01/29 08:16:43;;;;;;;;;;;15.20;61.50;;;;;;6244299;23;20345;-70
2024/01/29 08:19:08;;;;;;;;;;;15.10;61.10;;;;;;6244682;23;19962;-69
2024/01/29 08:21:34;;;;;;;;;;;15.10;61.20;;;;;;6244237;23;19910;-70
2024/01/29 08:23:59;;;;;;;;;;;15.20;61.00;;;;;;6244761;23;19990;-70
2024/01/29 08:26:25;;;;;;;;;;;15.10;61.00;;;;;;6245259;23;19904;-71
2024/01/29 08:28:51;;;;;;;;;;;15.20;61.10;;;;;;6245935;23;19915;-71
2024/01/29 08:31:16;;;;;;;;;;;15.00;61.20;;;;;;6246912;23;19904;-71
2024/01/29 08:33:44;;;;;;;;;;;15.30;61.60;;;;;;6245283;23;19904;-71
2024/01/29 08:36:10;;;;;;;;;;;15.20;61.00;;;;;;6246670;23;19904;-71
2024/01/29 08:38:35;;;;;;;;;;;15.10;61.40;;;;;;6246767;23;19904;-70
2024/01/29 08:41:01;;;;;;;;;;;15.20;61.20;;;;;;6246112;23;19975;-69
2024/01/29 08:43:27;;;;;;;;;;;15.20;61.30;;;;;;6246023;23;20338;-71
2024/01/29 08:45:52;;;;;;;;;;;15.10;61.40;;;;;;6246096;23;20234;-69
2024/01/29 08:48:17;;;;;;;;;;;15.10;61.50;;;;;;6246131;23;19949;-70
2024/01/29 08:50:43;;;;;;;;;;;15.40;61.40;;;;;;6246015;23;19978;-70
2024/01/29 08:53:09;;;;;;;;;;;15.10;61.30;;;;;;6246753;23;19903;-70
2024/01/29 08:55:34;;;;;;;;;;;15.10;61.60;;;;;;6244910;23;19946;-70
2024/01/29 08:58:00;;;;;;;;;;;15.30;61.50;;;;;;6245958;23;19904;-70
2024/01/29 09:00:25;;;;;;;;;;;15.10;61.30;;;;;;6245975;23;19950;-70
2024/01/29 09:02:51;;;;;;;;;;;15.10;61.20;;;;;;6246028;22;19926;-70
2024/01/29 09:05:16;;;;;;;;;;;15.10;61.50;;;;;;6245798;23;19911;-70
2024/01/29 09:07:42;;;;;;;;;;;15.10;61.10;;;;;;6245818;23;19903;-70
2024/01/29 09:10:08;;;;;;;;;;;15.10;61.20;;;;;;6245860;23;20330;-70
2024/01/29 09:12:33;;;;;;;;;;;15.10;60.20;;;;;;6255951;23;19910;-70
2024/01/29 09:14:59;;;;;;;;;;;15.10;61.40;;;;;;6246624;23;19943;-70
2024/01/29 09:17:24;;;;;;;;;;;15.10;61.30;;;;;;6245942;23;19903;-70
2024/01/29 09:19:51;;;;;;;;;;;15.10;61.80;;;;;;6246143;23;19982;-70
2024/01/29 09:22:17;;;;;;;;;;;15.20;61.60;;;;;;6245774;23;19910;-70
2024/01/29 09:24:43;;;;;;;;;;;15.10;61.50;;;;;;6245090;23;19987;-70
2024/01/29 09:27:08;;;;;;;;;;;15.20;61.40;;;;;;6245670;23;19908;-70
2024/01/29 09:29:34;;;;;;;;;;;15.20;61.70;;;;;;6245614;23;19983;-70
2024/01/29 09:31:59;;;;;;;;;;;15.20;61.20;;;;;;6246448;23;19903;-71
2024/01/29 09:34:26;;;;;;;;;;;15.10;61.50;;;;;;6245435;23;20340;-71
2024/01/29 09:36:51;;;;;;;;;;;15.20;61.40;;;;;;6245692;23;20257;-71
2024/01/29 09:39:18;;;;;;;;;;;15.20;61.60;;;;;;6245606;23;19910;-70
2024/01/29 09:41:43;;;;;;;;;;;15.20;61.60;;;;;;6256788;23;19903;-70
2024/01/29 09:44:12;;;;;;;;;;;15.20;61.40;;;;;;6246284;23;19950;-79
2024/01/29 09:46:39;;;;;;;;;;;15.20;61.30;;;;;;6245273;23;19903;-77
2024/01/29 09:49:05;;;;;;;;;;;15.20;61.70;;;;;;6245282;23;19946;-76
2024/01/29 09:51:31;;;;;;;;;;;15.10;61.50;;;;;;6245401;23;20247;-77
2024/01/29 09:53:57;;;;;;;;;;;15.20;61.60;;;;;;6245393;23;19957;-76
2024/01/29 09:56:23;;;;;;;;;;;15.20;61.90;;;;;;6245502;23;19903;-76
2024/01/29 09:58:48;;;;;;;;;;;15.20;61.80;;;;;;6245357;23;19910;-77
2024/01/29 10:01:15;;;;;;;;;;;15.30;61.30;;;;;;6245726;23;19911;-77
2024/01/29 10:03:41;;;;;;;;;;;15.30;61.70;;;;;;6245195;22;19919;-76
2024/01/29 10:06:07;;;;;;;;;;;15.30;62.10;;;;;;6245297;23;20002;-76
2024/01/29 10:08:33;;;;;;;;;;;15.70;62.20;;;;;;6245316;23;20036;-75
2024/01/29 10:10:59;;;;;;;;;;;15.30;62.20;;;;;;6245803;23;19914;-75
2024/01/29 10:13:25;;;;;;;;;;;15.40;62.10;;;;;;6245142;23;19931;-76
2024/01/29 10:15:52;;;;;;;;;;;15.40;62.00;;;;;;6245227;23;19908;-76
2024/01/29 10:18:17;;;;;;;;;;;15.50;61.80;;;;;;6245196;23;19903;-76
2024/01/29 10:20:43;;;;;;;;;;;15.50;62.10;;;;;;6245219;23;19904;-76
2024/01/29 10:23:08;;;;;;;;;;;15.50;61.90;;;;;;6245075;23;19903;-76
2024/01/29 10:25:38;;;;;;;;;;;15.60;61.60;;;;;;6244265;23;19919;-76
2024/01/29 10:28:05;;;;;;;;;;;15.60;61.80;;;;;;6245863;23;19908;-76
2024/01/29 10:30:30;;;;;;;;;;;15.70;62.00;;;;;;6245037;23;19928;-76
2024/01/29 10:32:56;;;;;;;;;;;15.70;61.90;;;;;;6245064;23;20271;-76
2024/01/29 10:35:22;;;;;;;;;;;15.80;61.50;;;;;;6245152;23;19904;-76
2024/01/29 10:37:47;;;;;;;;;;;15.80;61.90;;;;;;6245719;23;19999;-77
2024/01/29 10:40:15;;;;;;;;;;;15.90;61.80;;;;;;6244797;23;19935;-77
2024/01/29 10:42:41;;;;;;;;;;;15.90;61.90;;;;;;6245220;23;20268;-77
2024/01/29 10:45:08;;;;;;;;;;;16.20;62.10;;;;;;6244981;23;19919;-77
2024/01/29 10:47:37;;;;;;;;;;;16.10;61.40;;;;;;6243888;23;20273;-77
2024/01/29 10:50:03;;;;;;;;;;;16.10;61.70;;;;;;6245395;23;19904;-77
2024/01/29 10:52:29;;;;;;;;;;;16.10;61.00;;;;;;6245450;23;19946;-77
2024/01/29 10:54:58;;;;;;;;;;;16.20;61.60;;;;;;6244988;23;19919;-77
2024/01/29 10:57:25;;;;;;;;;;;16.20;61.10;;;;;;6245425;23;19910;-72
2024/01/29 10:59:51;;;;;;;;;;;16.20;61.20;;;;;;6245118;23;19911;-72
2024/01/29 11:02:16;;;;;;;;;;;16.30;61.00;;;;;;6244581;22;19916;-72
2024/01/29 11:04:42;;;;;;;;;;;16.30;61.70;;;;;;6255316;23;19947;-72
2024/01/29 11:07:12;;;;;;;;;;;16.50;61.50;;;;;;6255111;23;19904;-72
2024/01/29 11:09:40;;;;;;;;;;;16.40;61.70;;;;;;6245303;23;19903;-72
2024/01/29 11:12:07;;;;;;;;;;;16.40;61.30;;;;;;6244740;23;19911;-72
2024/01/29 11:14:33;;;;;;;;;;;16.50;60.00;;;;;;6245473;22;19958;-72
2024/01/29 11:16:58;;;;;;;;;;;16.50;60.90;;;;;;6244962;23;19904;-72
2024/01/29 11:19:24;;;;;;;;;;;16.70;61.00;;;;;;6244676;23;19904;-72
2024/01/29 11:21:50;;;;;;;;;;;16.60;60.90;;;;;;6244797;23;19911;-72
2024/01/29 11:24:16;;;;;;;;;;;16.70;60.90;;;;;;6245252;23;20049;-72
2024/01/29 11:26:41;;;;;;;;;;;16.80;60.60;;;;;;6245371;23;19926;-71
2024/01/29 11:29:07;;;;;;;;;;;16.70;60.90;;;;;;6242291;23;20347;-71
2024/01/29 11:31:40;;;;;;;;;;;16.70;61.00;;;;;;6244585;23;19991;-72
2024/01/29 11:34:06;;;;;;;;;;;16.80;56.90;;;;;;6244605;23;19910;-72
2024/01/29 11:36:34;;;;;;;;;;;16.80;60.60;;;;;;6244776;23;19994;-71
2024/01/29 11:39:06;;;;;;;;;;;16.80;60.50;;;;;;6245210;23;19904;-72
2024/01/29 11:41:33;;;;;;;;;;;16.90;56.60;;;;;;6244823;23;19994;-71
2024/01/29 11:44:00;;;;;;;;;;;16.90;60.60;;;;;;6244508;23;19910;-72
2024/01/29 11:46:28;;;;;;;;;;;17.00;60.70;;;;;;6244633;23;20323;-72
2024/01/29 11:48:58;;;;;;;;;;;16.90;56.70;;;;;;6244557;23;20239;-71
2024/01/29 11:51:31;;;;;;;;;;;16.90;56.50;;;;;;6245125;23;20222;-71
2024/01/29 11:53:56;;;;;;;;;;;17.20;56.80;;;;;;6245230;23;19911;-72
2024/01/29 11:56:22;;;;;;;;;;;17.10;60.50;;;;;;6244588;23;20287;-71
2024/01/29 11:59:03;;;;;;;;;;;17.10;60.60;;;;;;6244498;23;19910;-71
2024/01/29 12:01:31;;;;;;;;;;;17.30;60.40;;;;;;6256487;23;19904;-71
2024/01/29 12:03:57;;;;;;;;;;;17.20;60.90;;;;;;6246589;22;19930;-81
2024/01/29 12:06:23;;;;;;;;;;;17.50;60.80;;;;;;6246879;23;20196;-71
2024/01/29 12:08:49;;;;;;;;;;;17.40;60.80;;;;;;6246801;23;19904;-70
2024/01/29 12:11:15;;;;;;;;;;;17.40;60.70;;;;;;6247411;23;19958;-72
2024/01/29 12:13:41;;;;;;;;;;;17.40;60.60;;;;;;6245575;23;19908;-73
2024/01/29 12:16:07;;;;;;;;;;;17.40;60.10;;;;;;6244381;23;19914;-72
2024/01/29 12:18:33;;;;;;;;;;;17.50;60.80;;;;;;6244299;23;19936;-72
2024/01/29 12:20:59;;;;;;;;;;;17.40;60.40;;;;;;6244988;23;19950;-72
2024/01/29 12:23:24;;;;;;;;;;;17.60;60.60;;;;;;6245147;23;19903;-72
2024/01/29 12:25:54;;;;;;;;;;;17.60;60.60;;;;;;6244545;23;20490;-73
2024/01/29 12:28:20;;;;;;;;;;;17.60;56.50;;;;;;6244734;23;19907;-73
2024/01/29 12:30:58;;;;;;;;;;;17.60;60.50;;;;;;6246519;23;19926;-73
2024/01/29 12:33:28;;;;;;;;;;;17.40;56.40;;;;;;6244863;23;20330;-72
2024/01/29 12:35:54;;;;;;;;;;;17.80;60.60;;;;;;6255671;23;20048;-72
2024/01/29 12:38:22;;;;;;;;;;;17.80;60.50;;;;;;6256690;23;19950;-73
2024/01/29 12:40:48;;;;;;;;;;;17.80;60.20;;;;;;6256783;23;19907;-73
2024/01/29 12:43:14;;;;;;;;;;;17.80;60.10;;;;;;6256618;23;19903;-73
2024/01/29 12:45:41;;;;;;;;;;;18.00;60.40;;;;;;6256529;23;19918;-72
2024/01/29 12:48:19;;;;;;;;;;;17.90;60.70;;;;;;6256646;23;19903;-72
2024/01/29 12:50:44;;;;;;;;;;;17.90;56.40;;;;;;6247100;23;19908;-72
2024/01/29 12:53:10;;;;;;;;;;;18.00;60.40;;;;;;6245867;23;19930;-72
2024/01/29 12:55:36;;;;;;;;;;;18.00;60.30;;;;;;6246122;23;19904;-72
2024/01/29 12:58:02;;;;;;;;;;;18.00;60.20;;;;;;6246480;23;20369;-72
2024/01/29 13:00:28;;;;;;;;;;;18.00;60.10;;;;;;6246509;23;19947;-72
2024/01/29 13:02:53;;;;;;;;;;;18.10;60.00;;;;;;6246469;22;20239;-72
2024/01/29 13:05:19;;;;;;;;;;;18.20;60.50;;;;;;6246380;23;20336;-72
2024/01/29 13:07:44;;;;;;;;;;;18.00;60.70;;;;;;6256508;23;19918;-72
2024/01/29 13:10:11;;;;;;;;;;;17.90;60.70;;;;;;6247063;23;20014;-72
2024/01/29 13:12:37;;;;;;;;;;;18.00;60.70;;;;;;6245674;23;19957;-71
2024/01/29 13:15:04;;;;;;;;;;;18.00;60.80;;;;;;6246252;23;19910;-72
2024/01/29 13:17:29;;;;;;;;;;;18.00;59.90;;;;;;6246263;23;19904;-72
2024/01/29 13:19:55;;;;;;;;;;;18.00;60.90;;;;;;6246919;23;19904;-72
2024/01/29 13:22:23;;;;;;;;;;;18.10;61.20;;;;;;6246421;23;19918;-72
2024/01/29 13:24:49;;;;;;;;;;;18.00;58.80;;;;;;6245988;23;19907;-72
2024/01/29 13:27:15;;;;;;;;;;;18.00;61.30;;;;;;6246228;23;19910;-71
2024/01/29 13:29:40;;;;;;;;;;;17.90;61.10;;;;;;6246200;23;19950;-72
2024/01/29 13:32:06;;;;;;;;;;;18.00;61.20;;;;;;6246331;23;19903;-72
2024/01/29 13:34:31;;;;;;;;;;;18.00;61.20;;;;;;6246201;23;20234;-72
2024/01/29 13:36:57;;;;;;;;;;;18.30;61.40;;;;;;6246086;23;19911;-72
2024/01/29 13:39:23;;;;;;;;;;;18.10;61.20;;;;;;6246114;23;19914;-72
2024/01/29 13:41:48;;;;;;;;;;;18.00;59.00;;;;;;6246099;22;19908;-72
2024/01/29 13:44:14;;;;;;;;;;;17.90;61.70;;;;;;6245748;23;19904;-72
2024/01/29 13:46:39;;;;;;;;;;;17.90;61.50;;;;;;6245801;23;19931;-72
2024/01/29 13:49:05;;;;;;;;;;;16.90;61.10;;;;;;6246434;23;20219;-73
2024/01/29 13:51:30;;;;;;;;;;;17.90;61.60;;;;;;6246063;23;19908;-72
2024/01/29 13:53:57;;;;;;;;;;;17.90;61.80;;;;;;6246519;23;20279;-72
2024/01/29 13:56:22;;;;;;;;;;;17.90;61.80;;;;;;6245987;23;19904;-72
2024/01/29 13:58:48;;;;;;;;;;;17.90;62.00;;;;;;6245802;23;19926;-71
2024/01/29 14:01:14;;;;;;;;;;;18.00;61.60;;;;;;6245784;23;20306;-72
2024/01/29 14:03:39;;;;;;;;;;;17.90;61.90;;;;;;6245922;22;19915;-69
2024/01/29 14:06:05;;;;;;;;;;;17.90;61.70;;;;;;6245630;23;19961;-70
2024/01/29 14:08:31;;;;;;;;;;;17.80;62.00;;;;;;6245706;23;19907;-70
2024/01/29 14:10:57;;;;;;;;;;;17.90;62.40;;;;;;6245676;23;20282;-70
2024/01/29 14:13:22;;;;;;;;;;;17.80;62.20;;;;;;6245572;23;19903;-70
2024/01/29 14:15:48;;;;;;;;;;;17.90;62.40;;;;;;6245646;23;19990;-70